Time;durP1;ratioP1;P1;durP2;ratioP2;P2;SDS_P1;SDS_P2;PMS_P1;PMS_P2;Temp;Humidity;BMP_temperature;BMP_pressure;BME280_temperature;BME280_humidity;BME280_pressure;Samples;Min_cycle;Max_cycle;Signal;HPM_P1;HPM_P2
2022/01/03 00:01:32;;;;;;;1.43;1.00;;;;;;;12.41;73.50;96362.34;5039501;28;20204;-72
2022/01/03 00:03:59;;;;;;;1.10;0.63;;;;;;;12.51;72.59;96351.47;5037868;28;20201;-71
2022/01/03 00:06:25;;;;;;;2.90;0.90;;;;;;;12.34;73.17;96353.50;5038571;28;20397;-71
2022/01/03 00:08:52;;;;;;;1.13;0.70;;;;;;;12.17;74.17;96361.84;5036096;28;20205;-73
2022/01/03 00:11:21;;;;;;;0.80;0.70;;;;;;;12.64;73.64;96360.38;5039014;28;20205;-71
2022/01/03 00:13:50;;;;;;;1.83;1.00;;;;;;;12.71;73.52;96360.44;5039069;28;20216;-72
2022/01/03 00:16:19;;;;;;;1.60;1.23;;;;;;;12.73;73.33;96350.50;5038473;28;20236;-72
2022/01/03 00:18:45;;;;;;;1.93;0.80;;;;;;;12.27;73.90;96343.84;5039229;28;20216;-71
2022/01/03 00:21:13;;;;;;;4.60;0.80;;;;;;;12.66;73.44;96344.31;5038534;28;20201;-73
2022/01/03 00:23:44;;;;;;;0.57;0.57;;;;;;;12.52;73.99;96340.69;5037913;28;20599;-71
2022/01/03 00:26:14;;;;;;;2.43;1.60;;;;;;;12.43;74.38;96341.81;5036788;28;20225;-72
2022/01/03 00:28:46;;;;;;;1.80;0.70;;;;;;;12.56;73.72;96333.22;5038871;28;20202;-72
2022/01/03 00:31:15;;;;;;;1.30;0.70;;;;;;;12.62;73.95;96341.22;5038946;28;20308;-71
2022/01/03 00:33:43;;;;;;;0.70;0.70;;;;;;;12.84;73.03;96345.53;5037697;28;20212;-72
2022/01/03 00:36:10;;;;;;;0.63;0.60;;;;;;;12.29;74.22;96350.59;5038327;28;20229;-71
2022/01/03 00:38:37;;;;;;;0.53;0.53;;;;;;;12.36;74.36;96342.78;5038477;28;21254;-70
2022/01/03 00:41:03;;;;;;;1.03;0.70;;;;;;;12.47;74.05;96340.44;5038779;28;20209;-70
2022/01/03 00:43:31;;;;;;;1.13;0.80;;;;;;;12.50;74.28;96345.38;5037472;28;20224;-72
2022/01/03 00:45:58;;;;;;;1.17;0.57;;;;;;;12.47;74.47;96340.44;5037969;28;20217;-72
2022/01/03 00:48:25;;;;;;;4.43;0.90;;;;;;;12.52;74.61;96335.41;5038434;28;20204;-71
2022/01/03 00:50:53;;;;;;;1.63;0.83;;;;;;;12.61;74.15;96331.66;5038587;28;20216;-72
2022/01/03 00:53:20;;;;;;;2.43;0.73;;;;;;;12.61;73.67;96339.59;5037045;28;20995;-72
2022/01/03 00:56:03;;;;;;;0.60;0.47;;;;;;;13.01;73.13;96352.25;5038250;28;20232;-72
2022/01/03 00:58:36;;;;;;;0.60;0.60;;;;;;;12.90;74.06;96344.81;5038150;28;20208;-71
2022/01/03 01:01:05;;;;;;;5.43;0.87;;;;;;;12.69;74.17;96342.13;5037666;28;20695;-73
2022/01/03 01:03:36;;;;;;;1.10;1.00;;;;;;;12.76;74.19;96340.38;5036873;28;20668;-72
2022/01/03 01:06:06;;;;;;;0.20;0.20;;;;;;;12.62;74.65;96351.81;5037882;28;20225;-72
2022/01/03 01:08:34;;;;;;;1.80;0.50;;;;;;;12.63;74.58;96357.94;5037687;28;20212;-72
2022/01/03 01:11:03;;;;;;;1.07;0.70;;;;;;;12.59;74.64;96349.53;5037826;28;20210;-72
2022/01/03 01:13:29;;;;;;;4.07;0.50;;;;;;;12.49;74.29;96359.59;5036674;28;20197;-72
2022/01/03 01:15:56;;;;;;;0.87;0.53;;;;;;;12.34;74.83;96366.72;5037299;28;20229;-71
2022/01/03 01:18:24;;;;;;;2.37;0.87;;;;;;;12.57;74.64;96364.75;5038618;28;20202;-72
2022/01/03 01:20:50;;;;;;;0.60;0.60;;;;;;;12.51;74.10;96360.25;5037899;28;20224;-71
2022/01/03 01:23:19;;;;;;;1.97;1.03;;;;;;;12.76;73.91;96356.22;5036674;28;20497;-71
2022/01/03 01:28:30;;;;;;;1.90;0.50;;;;;;;12.62;73.26;96358.94;5038498;28;20745;-72
2022/01/03 01:31:00;;;;;;;1.27;0.67;;;;;;;12.70;73.74;96351.69;5037252;28;20201;-71
2022/01/03 01:33:32;;;;;;;1.53;0.63;;;;;;;12.78;73.15;96344.47;5036357;28;20201;-71
2022/01/03 01:36:02;;;;;;;0.77;0.67;;;;;;;12.63;73.55;96356.09;5036861;28;20233;-72
2022/01/03 01:38:35;;;;;;;0.60;0.47;;;;;;;12.76;73.56;96345.66;5037813;28;20201;-71
2022/01/03 01:41:04;;;;;;;1.43;0.63;;;;;;;12.67;73.89;96338.84;5037852;28;20201;-71
2022/01/03 01:43:35;;;;;;;1.07;1.00;;;;;;;12.60;74.25;96339.78;5036841;28;20216;-71
2022/01/03 01:46:05;;;;;;;1.03;0.70;;;;;;;12.65;74.17;96348.78;5037389;28;20229;-71
2022/01/03 01:48:34;;;;;;;1.03;0.70;;;;;;;12.67;73.91;96330.91;5037345;28;20212;-72
2022/01/03 01:51:01;;;;;;;0.83;0.70;;;;;;;12.38;74.38;96335.47;5037749;28;20209;-72
2022/01/03 01:53:28;;;;;;;0.37;0.37;;;;;;;12.50;74.19;96334.81;5036790;28;20431;-72
2022/01/03 01:55:59;;;;;;;2.30;1.03;;;;;;;12.70;73.63;96333.19;5037029;28;20326;-70
2022/01/03 01:58:30;;;;;;;0.83;0.70;;;;;;;12.60;73.90;96324.75;5037370;28;20201;-72
2022/01/03 02:00:59;;;;;;;2.40;0.80;;;;;;;12.72;73.36;96317.97;5036930;28;20209;-73
2022/01/03 02:03:37;;;;;;;1.50;0.63;;;;;;;12.76;73.55;96314.72;5036383;28;20197;-72
2022/01/03 02:06:17;;;;;;;1.70;0.60;;;;;;;12.81;73.21;96319.47;5037381;28;20247;-72
2022/01/03 02:08:45;;;;;;;0.50;0.40;;;;;;;12.68;73.70;96319.34;5036791;28;20212;-71
2022/01/03 02:11:27;;;;;;;1.07;0.77;;;;;;;12.86;72.54;96322.41;5037057;28;20223;-71
2022/01/03 02:13:54;;;;;;;0.43;0.43;;;;;;;12.44;73.71;96322.31;5036358;28;20205;-72
2022/01/03 02:16:21;;;;;;;5.53;2.10;;;;;;;12.53;73.21;96333.63;5037144;28;20249;-71
2022/01/03 02:18:47;;;;;;;2.03;0.97;;;;;;;12.41;73.28;96337.72;5037096;28;20205;-72
2022/01/03 02:21:17;;;;;;;3.47;0.70;;;;;;;12.72;73.22;96339.09;5036807;28;20212;-72
2022/01/03 02:23:43;;;;;;;4.03;0.80;;;;;;;12.60;72.77;96331.84;5035718;28;20201;-70
2022/01/03 02:26:10;;;;;;;0.73;0.50;;;;;;;12.47;72.88;96335.16;5034229;28;20224;-73
2022/01/03 02:28:37;;;;;;;1.37;0.40;;;;;;;12.47;72.78;96329.88;5036817;28;20220;-73
2022/01/03 02:31:03;;;;;;;3.17;1.33;;;;;;;12.35;72.93;96339.28;5036112;28;20200;-72
2022/01/03 02:33:30;;;;;;;0.40;0.40;;;;;;;12.41;72.68;96335.91;5035296;28;20780;-72
2022/01/03 02:35:56;;;;;;;0.40;0.40;;;;;;;12.31;73.23;96353.88;5036616;28;20229;-72
2022/01/03 02:38:25;;;;;;;1.00;0.43;;;;;;;12.68;72.77;96368.75;5036982;28;20208;-71
2022/01/03 02:40:51;;;;;;;0.63;0.40;;;;;;;12.45;72.76;96363.59;5036463;28;20732;-72
2022/01/03 02:43:18;;;;;;;1.63;0.90;;;;;;;12.57;72.52;96351.53;5035524;28;20209;-72
2022/01/03 02:45:44;;;;;;;2.87;0.87;;;;;;;12.47;72.75;96339.63;5036797;28;20990;-71
2022/01/03 02:48:12;;;;;;;2.43;0.40;;;;;;;12.43;72.79;96341.81;5036182;28;20209;-72
2022/01/03 02:50:39;;;;;;;0.63;0.50;;;;;;;12.54;72.72;96338.72;5036459;28;20201;-72
2022/01/03 02:53:06;;;;;;;0.73;0.53;;;;;;;12.55;72.41;96340.34;5035762;28;20334;-72
2022/01/03 02:55:34;;;;;;;4.30;0.87;;;;;;;12.77;72.48;96331.44;5036173;28;20712;-73
2022/01/03 02:58:06;;;;;;;0.33;0.33;;;;;;;12.60;72.86;96343.25;5035881;28;20205;-72
2022/01/03 03:00:36;;;;;;;0.57;0.57;;;;;;;12.69;72.40;96336.84;5036566;28;20193;-71
2022/01/03 03:03:04;;;;;;;0.30;0.30;;;;;;;12.56;72.51;96347.25;5035259;28;20205;-71
2022/01/03 03:05:31;;;;;;;1.33;0.50;;;;;;;12.62;72.34;96346.50;5036186;28;20232;-71
2022/01/03 03:07:57;;;;;;;2.67;0.47;;;;;;;12.30;73.05;96341.66;5036109;28;20212;-72
2022/01/03 03:10:26;;;;;;;1.83;0.87;;;;;;;12.71;72.73;96337.47;5036020;28;20193;-72
2022/01/03 03:12:54;;;;;;;4.33;0.60;;;;;;;12.59;73.11;96343.41;5035272;28;20209;-72
2022/01/03 03:15:27;;;;;;;4.43;0.67;;;;;;;12.68;72.58;96340.50;5036029;28;20261;-72
2022/01/03 03:17:54;;;;;;;2.53;0.93;;;;;;;12.21;73.41;96341.97;5036267;28;20931;-70
2022/01/03 03:20:23;;;;;;;0.30;0.30;;;;;;;12.44;73.44;96356.69;5039892;28;20208;-70
2022/01/03 03:22:51;;;;;;;0.50;0.40;;;;;;;12.47;73.44;96350.22;5039946;28;20202;-70
2022/01/03 03:25:19;;;;;;;0.30;0.30;;;;;;;12.52;73.27;96343.34;5041082;28;20228;-72
2022/01/03 03:27:48;;;;;;;0.80;0.80;;;;;;;12.41;73.64;96346.50;5037025;28;20214;-72
2022/01/03 03:30:20;;;;;;;4.13;0.77;;;;;;;12.65;73.22;96359.34;5039754;28;20225;-71
2022/01/03 03:32:47;;;;;;;6.33;1.10;;;;;;;12.30;73.42;96368.09;5039619;28;20236;-72
2022/01/03 03:35:15;;;;;;;1.50;0.63;;;;;;;12.43;73.45;96370.88;5040126;28;20228;-71
2022/01/03 03:37:42;;;;;;;3.40;0.73;;;;;;;12.53;72.62;96366.13;5040707;28;20205;-72
2022/01/03 03:40:09;;;;;;;1.43;0.70;;;;;;;12.56;72.64;96360.47;5040199;28;20682;-72
2022/01/03 03:42:37;;;;;;;1.03;0.93;;;;;;;12.61;72.55;96363.38;5039240;28;20693;-72
2022/01/03 03:45:05;;;;;;;3.20;1.57;;;;;;;12.60;72.81;96358.28;5039529;28;20231;-73
2022/01/03 03:47:34;;;;;;;2.20;0.47;;;;;;;12.47;73.40;96366.06;5040640;28;20201;-73
2022/01/03 03:50:01;;;;;;;0.50;0.50;;;;;;;12.34;72.88;96353.50;5038840;28;21226;-71
2022/01/03 03:52:27;;;;;;;4.03;1.17;;;;;;;12.31;72.78;96356.53;5038388;28;20205;-71
2022/01/03 03:54:54;;;;;;;2.77;0.70;;;;;;;12.37;72.47;96368.16;5039763;28;20667;-72
2022/01/03 03:57:20;;;;;;;0.93;0.80;;;;;;;12.31;72.48;96361.81;5039616;28;20221;-72
2022/01/03 03:59:47;;;;;;;8.83;1.13;;;;;;;12.36;72.14;96363.91;5038923;28;21079;-72
2022/01/03 04:02:13;;;;;;;3.00;0.70;;;;;;;12.32;71.98;96362.63;5039351;28;20201;-71
2022/01/03 04:04:41;;;;;;;0.50;0.30;;;;;;;12.68;71.30;96359.00;5039129;28;20225;-72
2022/01/03 04:07:08;;;;;;;6.33;0.60;;;;;;;12.65;70.39;96362.00;5038813;28;21207;-71
2022/01/03 04:09:35;;;;;;;0.73;0.40;;;;;;;12.57;70.01;96366.59;5039481;28;20205;-70
2022/01/03 04:12:01;;;;;;;4.57;0.60;;;;;;;12.44;70.34;96372.53;5039053;28;20209;-69
2022/01/03 04:14:28;;;;;;;0.30;0.30;;;;;;;12.53;69.66;96366.13;5037862;28;20232;-71
2022/01/03 04:16:54;;;;;;;1.73;0.70;;;;;;;12.72;69.09;96359.44;5038811;28;20582;-71
2022/01/03 04:19:21;;;;;;;0.40;0.40;;;;;;;12.60;69.23;96359.13;5039348;28;20201;-71
2022/01/03 04:21:49;;;;;;;1.17;0.70;;;;;;;12.81;69.03;96359.94;5038447;28;20209;-70
2022/01/03 04:24:15;;;;;;;0.40;0.40;;;;;;;12.69;68.93;96368.56;5038057;28;20221;-71
2022/01/03 04:26:43;;;;;;;0.53;0.40;;;;;;;12.78;68.98;96362.16;5035880;28;20197;-71
2022/01/03 04:29:10;;;;;;;0.53;0.27;;;;;;;12.74;68.50;96358.25;5038072;28;20644;-70
2022/01/03 04:31:36;;;;;;;0.67;0.60;;;;;;;12.59;69.14;96364.56;5039123;28;20208;-71
2022/01/03 04:34:03;;;;;;;2.67;0.97;;;;;;;12.82;68.15;96361.59;5037923;28;20233;-70
2022/01/03 04:36:29;;;;;;;0.30;0.30;;;;;;;12.62;68.45;96365.03;5042719;28;20221;-71
2022/01/03 04:38:57;;;;;;;0.43;0.40;;;;;;;12.96;68.40;96362.59;5043134;28;20213;-71
2022/01/03 04:41:24;;;;;;;1.40;0.30;;;;;;;12.46;68.36;96359.13;5042916;28;20205;-71
2022/01/03 04:43:50;;;;;;;0.40;0.40;;;;;;;12.69;68.05;96359.81;5042011;28;20209;-71
2022/01/03 04:46:17;;;;;;;1.17;0.60;;;;;;;12.84;67.78;96369.34;5042843;28;20204;-72
2022/01/03 04:48:44;;;;;;;0.27;0.27;;;;;;;12.63;66.74;96366.66;5041731;28;20205;-71
2022/01/03 04:51:11;;;;;;;0.83;0.40;;;;;;;12.66;66.32;96363.66;5042624;28;20891;-71
2022/01/03 04:53:40;;;;;;;0.50;0.50;;;;;;;12.92;65.79;96356.03;5039378;28;20203;-72
2022/01/03 04:56:10;;;;;;;1.63;0.60;;;;;;;13.08;65.68;96361.88;5038827;28;20279;-71
2022/01/03 04:58:37;;;;;;;0.47;0.47;;;;;;;12.92;65.41;96356.03;5040142;28;20209;-71
2022/01/03 05:01:04;;;;;;;0.33;0.33;;;;;;;13.10;65.62;96354.59;5038101;28;20204;-71
2022/01/03 05:03:31;;;;;;;0.40;0.40;;;;;;;12.72;66.45;96348.88;5037059;28;20205;-72
2022/01/03 05:05:57;;;;;;;0.30;0.30;;;;;;;12.60;66.46;96351.19;5038414;28;20232;-70
2022/01/03 05:08:24;;;;;;;2.37;0.40;;;;;;;12.72;66.60;96352.34;5038475;28;20212;-71
2022/01/03 05:10:50;;;;;;;0.33;0.33;;;;;;;12.72;66.57;96352.34;5037590;28;20202;-70
2022/01/03 05:13:18;;;;;;;1.33;0.50;;;;;;;12.79;67.17;96354.03;5037823;28;20296;-70
2022/01/03 05:15:44;;;;;;;0.40;0.40;;;;;;;12.55;67.01;96350.94;5038155;28;20236;-72
2022/01/03 05:18:11;;;;;;;3.83;0.40;;;;;;;12.53;67.24;96352.91;5037993;28;20670;-71
2022/01/03 05:20:37;;;;;;;1.93;0.53;;;;;;;12.48;67.61;96351.84;5038417;28;20212;-70
2022/01/03 05:23:04;;;;;;;0.40;0.40;;;;;;;12.46;67.73;96352.03;5038014;28;20576;-71
2022/01/03 05:25:30;;;;;;;3.50;0.93;;;;;;;12.53;67.72;96354.75;5035502;28;20235;-71
2022/01/03 05:27:57;;;;;;;2.50;0.50;;;;;;;12.50;67.88;96350.66;5037753;28;20202;-71
2022/01/03 05:30:25;;;;;;;0.43;0.43;;;;;;;12.67;68.11;96357.34;5038243;28;20205;-71
2022/01/03 05:32:51;;;;;;;24.87;1.07;;;;;;;12.42;68.04;96358.69;5037170;28;20205;-70
2022/01/03 05:35:18;;;;;;;1.70;0.80;;;;;;;12.37;67.81;96366.38;5037295;28;20792;-71
2022/01/03 05:37:44;;;;;;;0.73;0.40;;;;;;;12.45;67.79;96363.59;5038008;28;20216;-71
2022/01/03 05:40:12;;;;;;;0.20;0.20;;;;;;;12.51;67.88;96362.88;5037498;28;20209;-71
2022/01/03 05:42:40;;;;;;;9.67;0.70;;;;;;;12.25;68.06;96364.38;5036551;28;20208;-72
2022/01/03 05:45:07;;;;;;;1.40;0.30;;;;;;;12.35;67.60;96368.34;5037248;28;20236;-71
2022/01/03 05:47:36;;;;;;;1.17;0.50;;;;;;;12.50;67.78;96366.53;5036491;28;20201;-71
2022/01/03 05:50:03;;;;;;;0.30;0.30;;;;;;;12.16;68.52;96375.22;5036945;28;21152;-70
2022/01/03 05:52:30;;;;;;;1.37;0.60;;;;;;;12.22;67.38;96355.00;5036390;28;20685;-72
2022/01/03 05:54:57;;;;;;;1.37;0.73;;;;;;;12.36;67.20;96366.56;5036729;28;20355;-72
2022/01/03 05:57:23;;;;;;;1.27;0.50;;;;;;;12.25;67.34;96361.72;5036703;28;20640;-71
2022/01/03 05:59:50;;;;;;;0.87;0.40;;;;;;;12.30;67.40;96360.16;5037253;28;20217;-72
2022/01/03 06:02:17;;;;;;;0.43;0.40;;;;;;;12.26;67.50;96358.91;5036187;28;20593;-71
2022/01/03 06:04:56;;;;;;;0.77;0.77;;;;;;;12.32;67.79;96347.59;5036388;28;20224;-71
2022/01/03 06:07:22;;;;;;;2.17;0.63;;;;;;;12.38;67.29;96359.25;5036509;28;20669;-72
2022/01/03 06:09:50;;;;;;;1.23;0.53;;;;;;;12.16;68.01;96362.03;5037674;28;20205;-72
2022/01/03 06:12:17;;;;;;;1.43;0.70;;;;;;;12.15;67.63;96355.91;5035776;28;20212;-71
2022/01/03 06:14:44;;;;;;;4.33;0.70;;;;;;;12.05;67.98;96363.28;5036769;28;20976;-70
2022/01/03 06:17:11;;;;;;;1.07;0.63;;;;;;;12.11;67.97;96362.56;5037445;28;20221;-72
2022/01/03 06:19:38;;;;;;;0.23;0.23;;;;;;;12.07;68.39;96363.13;5037028;28;20205;-72
2022/01/03 06:22:08;;;;;;;1.47;0.50;;;;;;;12.46;67.50;96375.81;5036576;28;20227;-72
2022/01/03 06:24:36;;;;;;;1.23;0.50;;;;;;;12.40;67.29;96375.75;5036141;28;20265;-70
2022/01/03 06:27:03;;;;;;;1.33;0.40;;;;;;;12.20;67.62;96374.66;5033476;28;20678;-70
2022/01/03 06:29:29;;;;;;;0.50;0.50;;;;;;;12.06;68.16;96378.13;5036394;28;20201;-71
2022/01/03 06:31:56;;;;;;;1.23;0.70;;;;;;;12.05;67.92;96396.81;5036560;28;20201;-71
2022/01/03 06:34:23;;;;;;;0.40;0.40;;;;;;;11.91;68.49;96394.97;5035743;28;20220;-70
2022/01/03 06:36:49;;;;;;;1.63;0.60;;;;;;;11.96;67.97;96392.63;5036527;28;20592;-71
2022/01/03 06:39:17;;;;;;;2.47;0.60;;;;;;;12.26;67.65;96387.16;5036363;28;21135;-70
2022/01/03 06:41:44;;;;;;;2.10;0.60;;;;;;;12.36;66.91;96385.06;5036227;28;20986;-71
2022/01/03 06:44:11;;;;;;;2.20;0.47;;;;;;;12.15;67.25;96392.06;5036502;28;20217;-71
2022/01/03 06:46:38;;;;;;;0.30;0.30;;;;;;;12.20;66.88;96391.31;5036147;28;20197;-70
2022/01/03 06:49:06;;;;;;;2.67;1.33;;;;;;;12.00;67.98;96399.16;5036104;28;20913;-71
2022/01/03 06:51:34;;;;;;;1.83;0.53;;;;;;;12.08;67.78;96402.56;5038226;28;20205;-71
2022/01/03 06:54:01;;;;;;;5.63;1.13;;;;;;;11.92;68.25;96413.28;5039232;28;20205;-71
2022/01/03 06:56:29;;;;;;;0.40;0.40;;;;;;;12.21;68.35;96398.25;5039172;28;20268;-70
2022/01/03 06:58:56;;;;;;;0.93;0.80;;;;;;;11.91;68.40;96400.25;5040618;28;20209;-71
2022/01/03 07:01:22;;;;;;;5.97;0.90;;;;;;;12.10;67.62;96400.53;5041004;28;20216;-71
2022/01/03 07:03:49;;;;;;;7.40;1.03;;;;;;;11.91;68.54;96410.81;5040304;28;20217;-71
2022/01/03 07:06:15;;;;;;;1.13;0.80;;;;;;;12.03;68.57;96404.09;5039023;28;20212;-71
2022/01/03 07:08:41;;;;;;;0.50;0.50;;;;;;;12.28;71.53;96401.81;5038898;28;20631;-71
2022/01/03 07:11:08;;;;;;;9.03;0.70;;;;;;;12.25;67.70;96393.44;5039563;28;20342;-70
2022/01/03 07:13:43;;;;;;;1.90;0.60;;;;;;;13.11;70.16;96406.50;5037967;28;20584;-71
2022/01/03 07:18:57;;;;;;;6.83;0.80;;;;;;;12.21;67.68;96397.44;5040532;28;20216;-71
2022/01/03 07:21:23;;;;;;;0.73;0.30;;;;;;;12.23;67.38;96392.78;5040506;28;20578;-71
2022/01/03 07:23:50;;;;;;;1.93;0.60;;;;;;;11.97;68.56;96402.19;5040168;28;20212;-71
2022/01/03 07:26:17;;;;;;;0.67;0.60;;;;;;;12.12;68.13;96387.97;5037264;28;20205;-71
2022/01/03 07:28:45;;;;;;;4.53;0.70;;;;;;;12.28;68.04;96401.81;5040005;28;20205;-71
2022/01/03 07:31:11;;;;;;;1.90;0.97;;;;;;;12.24;67.51;96397.91;5039647;28;20198;-71
2022/01/03 07:33:38;;;;;;;1.00;0.80;;;;;;;11.96;68.79;96397.91;5040035;28;21102;-71
2022/01/03 07:36:05;;;;;;;1.70;0.53;;;;;;;12.09;68.35;96392.78;5040389;28;20236;-71
2022/01/03 07:38:31;;;;;;;1.47;0.40;;;;;;;12.07;68.24;96387.69;5040365;28;20247;-71
2022/01/03 07:40:59;;;;;;;5.73;1.53;;;;;;;11.97;68.28;96396.91;5040179;28;20212;-71
2022/01/03 07:43:25;;;;;;;1.77;0.70;;;;;;;11.72;69.08;96400.78;5039143;28;20213;-71
2022/01/03 07:45:53;;;;;;;6.17;1.20;;;;;;;12.04;68.88;96398.63;5038267;28;20221;-71
2022/01/03 07:48:19;;;;;;;10.47;1.33;;;;;;;11.85;69.03;96400.97;5039801;28;20574;-71
2022/01/03 07:50:46;;;;;;;3.60;0.53;;;;;;;11.85;69.30;96396.53;5040130;28;20677;-71
2022/01/03 07:53:12;;;;;;;3.20;0.60;;;;;;;12.03;68.82;96399.63;5038213;28;20212;-71
2022/01/03 07:55:39;;;;;;;2.03;0.83;;;;;;;11.69;69.84;96396.69;5038735;28;21187;-71
2022/01/03 07:58:05;;;;;;;0.80;0.47;;;;;;;11.69;69.51;96396.69;5037446;28;20217;-71
2022/01/03 08:00:32;;;;;;;4.20;1.00;;;;;;;11.84;69.04;96392.25;5038305;28;20216;-71
2022/01/03 08:03:00;;;;;;;2.63;0.63;;;;;;;11.90;69.37;96380.13;5037429;28;20209;-71
2022/01/03 08:05:26;;;;;;;0.50;0.40;;;;;;;11.70;69.41;96381.69;5039160;28;20225;-71
2022/01/03 08:07:53;;;;;;;1.60;0.83;;;;;;;11.74;69.44;96382.94;5038952;28;20205;-71
2022/01/03 08:10:20;;;;;;;1.27;0.53;;;;;;;11.66;69.65;96383.03;5038946;28;20201;-71
2022/01/03 08:12:47;;;;;;;2.00;0.83;;;;;;;11.76;69.83;96381.78;5039014;28;20201;-71
2022/01/03 08:15:13;;;;;;;0.83;0.50;;;;;;;11.93;69.14;96383.22;5038748;28;20221;-71
2022/01/03 08:17:44;;;;;;;3.23;0.77;;;;;;;11.76;69.72;96387.06;5038685;28;20228;-71
2022/01/03 08:20:12;;;;;;;2.37;0.70;;;;;;;12.03;70.02;96380.31;5037976;28;21089;-71
2022/01/03 08:22:39;;;;;;;1.10;0.43;;;;;;;11.70;69.87;96384.31;5039163;28;20201;-70
2022/01/03 08:25:06;;;;;;;0.20;0.20;;;;;;;11.75;70.94;96397.81;5038849;28;20675;-71
2022/01/03 08:27:33;;;;;;;0.30;0.30;;;;;;;11.74;70.53;96399.59;5035928;28;20197;-71
2022/01/03 08:29:59;;;;;;;0.87;0.70;;;;;;;11.99;70.25;96390.44;5038670;28;21483;-71
2022/01/03 08:32:26;;;;;;;1.70;0.60;;;;;;;11.73;71.28;96391.88;5037169;28;20432;-71
2022/01/03 08:34:53;;;;;;;2.83;0.60;;;;;;;12.07;70.57;96382.41;5038326;28;20312;-71
2022/01/03 08:37:21;;;;;;;0.50;0.50;;;;;;;12.15;71.14;96386.78;5038386;28;20221;-71
2022/01/03 08:39:47;;;;;;;1.13;0.40;;;;;;;11.78;72.14;96389.50;5037636;28;20453;-71
2022/01/03 08:42:14;;;;;;;5.03;0.53;;;;;;;12.02;71.65;96382.16;5036642;28;20204;-71
2022/01/03 08:44:40;;;;;;;0.93;0.77;;;;;;;11.73;72.94;96386.59;5038227;28;20221;-71
2022/01/03 08:47:07;;;;;;;2.30;0.70;;;;;;;11.83;72.72;96387.94;5037859;28;20225;-72
2022/01/03 08:49:34;;;;;;;2.83;0.60;;;;;;;11.99;72.74;96386.97;5038029;28;20198;-71
2022/01/03 08:52:01;;;;;;;3.47;0.70;;;;;;;11.98;72.66;96388.78;5037937;28;21136;-71
2022/01/03 08:54:29;;;;;;;0.73;0.60;;;;;;;12.11;73.23;96377.59;5038147;28;20251;-71
2022/01/03 08:56:55;;;;;;;1.50;1.07;;;;;;;11.71;74.10;96388.56;5037949;28;20216;-71
2022/01/03 08:59:22;;;;;;;5.63;0.77;;;;;;;12.02;73.64;96376.06;5036728;28;20201;-71
2022/01/03 09:01:49;;;;;;;1.03;0.80;;;;;;;11.91;73.76;96379.13;5036961;28;20245;-71
2022/01/03 09:04:15;;;;;;;4.10;0.63;;;;;;;11.82;74.37;96396.88;5034317;28;20263;-71
2022/01/03 09:06:42;;;;;;;1.73;0.70;;;;;;;11.93;73.82;96390.34;5037178;28;20216;-72
2022/01/03 09:09:08;;;;;;;0.67;0.40;;;;;;;11.93;73.74;96385.06;5037630;28;20197;-72
2022/01/03 09:11:36;;;;;;;2.07;1.30;;;;;;;12.13;74.11;96391.44;5037949;28;20226;-71
2022/01/03 09:14:03;;;;;;;2.00;0.90;;;;;;;12.19;73.44;96391.50;5036643;28;20204;-72
2022/01/03 09:16:30;;;;;;;1.67;0.70;;;;;;;11.95;74.41;96393.59;5038561;28;20220;-71
2022/01/03 09:18:56;;;;;;;0.40;0.40;;;;;;;12.30;72.89;96394.50;5038138;28;20232;-71
2022/01/03 09:21:23;;;;;;;0.87;0.50;;;;;;;12.12;73.03;96395.06;5037456;28;20678;-71
2022/01/03 09:23:54;;;;;;;6.40;1.20;;;;;;;12.36;72.89;96392.97;5037598;28;20205;-72
2022/01/03 09:29:06;;;;;;;1.23;0.60;;;;;;;12.61;72.65;96399.59;5033975;28;20212;-71
2022/01/03 09:31:35;;;;;;;3.27;0.90;;;;;;;12.84;71.97;96390.50;5037254;28;20467;-71
2022/01/03 09:34:04;;;;;;;3.40;0.77;;;;;;;12.79;71.99;96391.06;5036154;28;20472;-72
2022/01/03 09:36:31;;;;;;;0.80;0.60;;;;;;;12.47;73.29;96395.13;5036502;28;20283;-72
2022/01/03 09:38:58;;;;;;;3.13;0.70;;;;;;;12.35;73.59;96388.69;5036562;28;20225;-72
2022/01/03 09:41:28;;;;;;;1.17;0.50;;;;;;;12.90;72.83;96384.50;5037616;28;20202;-72
2022/01/03 09:43:57;;;;;;;1.73;0.50;;;;;;;12.73;73.21;96383.06;5036114;28;20763;-72
2022/01/03 09:46:26;;;;;;;0.50;0.50;;;;;;;12.73;73.54;96390.16;5036612;28;20211;-72
2022/01/03 09:48:55;;;;;;;1.60;0.90;;;;;;;12.82;73.42;96392.50;5036762;28;20212;-72
2022/01/03 09:51:23;;;;;;;0.83;0.60;;;;;;;12.88;72.98;96389.97;5036582;28;20209;-72
2022/01/03 09:53:51;;;;;;;4.47;0.50;;;;;;;12.64;73.57;96384.19;5035929;28;20531;-72
2022/01/03 09:56:18;;;;;;;1.30;0.70;;;;;;;12.77;73.50;96382.47;5037446;28;20673;-71
2022/01/03 09:58:46;;;;;;;4.20;1.37;;;;;;;12.75;73.69;96386.31;5036831;28;20569;-72
2022/01/03 10:01:12;;;;;;;3.40;0.77;;;;;;;12.89;73.00;96385.50;5036366;28;20213;-71
2022/01/03 10:03:47;;;;;;;4.70;1.13;;;;;;;12.98;73.18;96387.84;5035870;28;20383;-72
2022/01/03 10:06:14;;;;;;;1.07;0.60;;;;;;;12.65;73.82;96396.38;5035612;28;20228;-71
2022/01/03 10:08:41;;;;;;;4.43;1.23;;;;;;;12.50;73.91;96395.59;5035800;28;20205;-72
2022/01/03 10:11:07;;;;;;;0.50;0.47;;;;;;;12.66;73.36;96382.16;5036134;28;20216;-71
2022/01/03 10:13:34;;;;;;;3.77;0.83;;;;;;;12.82;72.87;96384.59;5035358;28;20212;-72
2022/01/03 10:16:00;;;;;;;0.70;0.70;;;;;;;12.67;73.24;96377.69;5035695;28;20228;-72
2022/01/03 10:18:27;;;;;;;0.97;0.50;;;;;;;12.59;72.84;96365.41;5035865;28;20221;-72
2022/01/03 10:20:56;;;;;;;0.63;0.63;;;;;;;13.04;72.32;96368.56;5036070;28;20473;-72
2022/01/03 10:23:23;;;;;;;0.40;0.40;;;;;;;12.68;73.00;96368.75;5035445;28;20228;-71
2022/01/03 10:25:50;;;;;;;2.07;0.53;;;;;;;12.74;72.58;96371.47;5033803;28;20229;-71
2022/01/03 10:28:24;;;;;;;1.03;0.50;;;;;;;13.30;72.17;96366.19;5034278;28;20197;-71
2022/01/03 10:30:51;;;;;;;2.23;0.70;;;;;;;12.78;72.82;96375.38;5036355;28;20200;-72
2022/01/03 10:33:20;;;;;;;0.67;0.43;;;;;;;13.01;72.87;96374.25;5034920;28;20205;-72
2022/01/03 10:35:49;;;;;;;6.00;1.67;;;;;;;13.28;72.12;96370.03;5035735;28;20229;-71
2022/01/03 10:41:14;;;;;;;3.90;0.70;;;;;;;13.11;72.61;96366.81;5073651;27;21318;-72
2022/01/03 10:43:41;;;;;;;1.47;0.60;;;;;;;13.00;72.78;96355.91;5073031;28;20951;-74
2022/01/03 10:46:18;;;;;;;0.60;0.60;;;;;;;13.16;72.85;96363.59;5074212;28;20230;-72
2022/01/03 10:48:44;;;;;;;0.83;0.63;;;;;;;12.77;73.27;96365.81;5074209;28;20238;-72
2022/01/03 10:51:11;;;;;;;0.20;0.20;;;;;;;12.71;72.82;96355.97;5072808;28;20200;-71
2022/01/03 10:53:40;;;;;;;1.60;0.60;;;;;;;13.28;72.62;96349.66;5073921;28;20202;-71
2022/01/03 10:56:24;;;;;;;0.93;0.57;;;;;;;13.12;72.47;96351.75;5073820;28;20654;-71
2022/01/03 10:58:51;;;;;;;2.20;0.80;;;;;;;13.11;72.57;96350.94;5073356;28;21105;-71
2022/01/03 11:01:21;;;;;;;1.00;0.60;;;;;;;13.09;73.13;96342.34;5073468;28;20200;-73
2022/01/03 11:03:47;;;;;;;0.70;0.70;;;;;;;12.75;73.53;96346.66;5072991;28;20200;-73
2022/01/03 11:06:23;;;;;;;2.43;0.83;;;;;;;13.29;72.78;96348.66;5073481;28;20230;-72
2022/01/03 11:11:38;;;;;;;0.90;0.90;;;;;;;13.27;72.89;96337.44;5073388;28;20349;-71
2022/01/03 11:14:05;;;;;;;0.50;0.50;;;;;;;12.73;73.29;96338.09;5073143;28;20253;-72
2022/01/03 11:16:33;;;;;;;1.47;0.70;;;;;;;13.03;72.97;96342.28;5073201;28;20200;-72
2022/01/03 11:19:00;;;;;;;3.00;0.50;;;;;;;12.83;73.38;96342.06;5072972;28;20211;-72
2022/01/03 11:21:28;;;;;;;2.20;0.70;;;;;;;12.80;73.54;96338.97;5072495;28;20871;-73
2022/01/03 11:24:05;;;;;;;1.03;0.70;;;;;;;12.93;73.34;96341.78;5072727;28;20554;-71
2022/01/03 11:26:33;;;;;;;1.83;0.60;;;;;;;12.87;73.66;96342.56;5070527;28;20199;-72
2022/01/03 11:29:02;;;;;;;0.57;0.43;;;;;;;13.25;72.86;96335.97;5073101;28;20292;-71
2022/01/03 11:31:32;;;;;;;1.00;0.60;;;;;;;13.06;73.42;96336.63;5072875;28;20672;-71
2022/01/03 11:33:59;;;;;;;0.83;0.60;;;;;;;12.94;73.45;96327.56;5072450;28;20210;-73
2022/01/03 11:36:26;;;;;;;1.33;0.93;;;;;;;13.04;73.45;96317.50;5072730;28;20200;-71
2022/01/03 11:39:03;;;;;;;4.10;0.77;;;;;;;13.18;72.90;96324.53;5072747;28;20204;-72
2022/01/03 11:41:30;;;;;;;1.90;0.50;;;;;;;12.95;73.22;96308.03;5072618;28;20200;-71
2022/01/03 11:43:56;;;;;;;1.90;0.40;;;;;;;12.96;73.15;96315.78;5072560;28;20216;-73
2022/01/03 11:46:24;;;;;;;1.90;1.23;;;;;;;13.05;72.83;96297.97;5072901;28;20203;-71
2022/01/03 11:48:51;;;;;;;2.00;0.50;;;;;;;13.02;72.90;96303.63;5073103;28;20208;-72
2022/01/03 11:51:19;;;;;;;1.23;0.70;;;;;;;13.07;72.75;96291.47;5065560;28;20193;-72